createdAt,value
2023-03-29T00:01:43.007Z,100993.78
2023-03-29T00:03:47.204Z,101001.53
2023-03-29T00:05:51.073Z,101005.81
2023-03-29T00:07:54.376Z,100986.84
2023-03-29T00:09:57.988Z,100987.78
2023-03-29T00:12:01.110Z,100973.91
2023-03-29T00:14:04.290Z,100988.66
2023-03-29T00:16:07.624Z,100980.91
2023-03-29T00:18:11.796Z,100983.44
2023-03-29T00:20:14.607Z,100989.44
2023-03-29T00:22:17.555Z,100972.13
2023-03-29T00:24:21.105Z,100973.06
2023-03-29T00:26:24.376Z,100979.06
2023-03-29T00:28:27.187Z,100978.25
2023-03-29T00:30:30.163Z,100976.56
2023-03-29T00:32:34.288Z,100973.16
2023-03-29T00:34:38.614Z,100980.06
2023-03-29T00:36:41.462Z,100975.75
2023-03-29T00:38:45.358Z,100972.34
2023-03-29T00:40:48.403Z,100962.84
2023-03-29T00:42:51.275Z,100960.22
2023-03-29T00:45:03.716Z,100957.63
2023-03-29T00:47:06.739Z,100955.81
2023-03-29T00:49:13.883Z,100960.22
2023-03-29T00:51:21.567Z,100953.25
2023-03-29T00:53:32.302Z,100956.63
2023-03-29T00:55:38.404Z,100947.03
2023-03-29T00:57:43.312Z,100960.06
2023-03-29T00:59:48.129Z,100959.84
2023-03-29T01:01:54.397Z,100963.22
2023-03-29T01:04:04.154Z,100966.72
2023-03-29T01:06:09.612Z,100966.75
2023-03-29T01:08:18.243Z,100957.31
2023-03-29T01:10:27.423Z,100956.44
2023-03-29T01:12:35.818Z,100957.25
2023-03-29T01:14:43.839Z,100946.81
2023-03-29T01:16:47.658Z,100940.75
2023-03-29T01:18:52.187Z,100943.44
2023-03-29T01:21:15.326Z,100936.53
2023-03-29T01:23:33.348Z,100933.81
2023-03-29T01:25:43.321Z,100937.31
2023-03-29T01:27:54.455Z,100932.28
2023-03-29T01:30:04.069Z,100932.28
2023-03-29T01:32:12.517Z,100921.09
2023-03-29T01:34:22.538Z,100927.03
2023-03-29T01:36:28.642Z,100929.44
2023-03-29T01:38:35.663Z,100922.44
2023-03-29T01:40:38.670Z,100919.00
2023-03-29T01:42:47.719Z,100916.44
2023-03-29T01:45:00.344Z,100915.50
2023-03-29T01:47:12.754Z,100913.59
2023-03-29T01:49:23.529Z,100911.91
2023-03-29T01:51:31.638Z,100909.31
2023-03-29T01:53:39.567Z,100909.31
2023-03-29T01:55:48.299Z,100918.81
2023-03-29T01:57:54.036Z,100912.81
2023-03-29T01:59:59.781Z,100907.56
2023-03-29T02:02:06.076Z,100909.31
2023-03-29T02:04:14.049Z,100904.31
2023-03-29T02:06:20.532Z,100901.53
2023-03-29T02:08:23.577Z,100904.91
2023-03-29T02:10:27.827Z,100888.69
2023-03-29T02:12:31.027Z,100893.78
2023-03-29T02:14:34.039Z,100888.50
2023-03-29T02:16:38.879Z,100881.66
2023-03-29T02:18:42.706Z,100882.09
2023-03-29T02:20:48.476Z,100882.09
2023-03-29T02:22:58.656Z,100869.44
2023-03-29T02:25:04.761Z,100863.47
2023-03-29T02:27:08.019Z,100863.63
2023-03-29T02:29:11.676Z,100862.78
2023-03-29T02:31:21.202Z,100861.06
2023-03-29T02:33:31.476Z,100855.13
2023-03-29T02:35:38.531Z,100854.09
2023-03-29T02:37:45.170Z,100856.72
2023-03-29T02:39:50.020Z,100851.66
2023-03-29T02:41:54.564Z,100845.50
2023-03-29T02:44:01.389Z,100851.50
2023-03-29T02:46:06.307Z,100856.59
2023-03-29T02:48:11.449Z,100857.03
2023-03-29T02:50:16.516Z,100864.75
2023-03-29T02:52:24.812Z,100854.69
2023-03-29T02:54:31.554Z,100852.25
2023-03-29T02:56:43.214Z,100856.72
2023-03-29T02:58:46.187Z,100851.53
2023-03-29T03:00:51.832Z,100847.25
2023-03-29T03:02:55.179Z,100838.63
2023-03-29T03:04:59.155Z,100841.31
2023-03-29T03:07:05.102Z,100831.78
2023-03-29T03:09:10.367Z,100830.03
2023-03-29T03:11:16.901Z,100830.13
2023-03-29T03:13:19.707Z,100834.50
2023-03-29T03:15:22.617Z,100842.34
2023-03-29T03:17:25.646Z,100839.53
2023-03-29T03:19:28.659Z,100836.00
2023-03-29T03:21:31.500Z,100832.69
2023-03-29T03:23:37.179Z,100834.44
2023-03-29T03:25:40.016Z,100833.59
2023-03-29T03:27:42.829Z,100835.19
2023-03-29T03:29:47.140Z,100834.22
2023-03-29T03:32:08.628Z,100834.97
2023-03-29T03:34:26.288Z,100822.88
2023-03-29T03:36:34.625Z,100814.41
2023-03-29T03:38:39.696Z,100815.19
2023-03-29T03:40:42.528Z,100816.78
2023-03-29T03:42:45.467Z,100820.97
2023-03-29T03:44:48.744Z,100822.47
2023-03-29T03:47:10.166Z,100821.25
2023-03-29T03:49:14.400Z,100820.53
2023-03-29T03:51:18.983Z,100806.03
2023-03-29T03:53:26.081Z,100809.63
2023-03-29T03:55:50.169Z,100813.00
2023-03-29T03:57:58.141Z,100817.84
2023-03-29T04:00:01.115Z,100809.97
2023-03-29T04:02:15.588Z,100815.25
2023-03-29T04:04:20.551Z,100817.78
2023-03-29T04:06:43.778Z,100813.03
2023-03-29T04:09:15.789Z,100812.41
2023-03-29T04:11:25.606Z,100809.69
2023-03-29T04:13:29.175Z,100821.78
2023-03-29T04:15:57.693Z,100811.44
2023-03-29T04:18:02.843Z,100816.72
2023-03-29T04:20:11.876Z,100815.00
2023-03-29T04:22:16.315Z,100821.84
2023-03-29T04:24:19.421Z,100809.72
2023-03-29T04:26:41.212Z,100818.38
2023-03-29T04:28:51.329Z,100813.97
2023-03-29T04:31:06.624Z,100820.91
2023-03-29T04:33:21.616Z,100818.38
2023-03-29T04:35:31.533Z,100813.34
2023-03-29T04:37:35.057Z,100821.88
2023-03-29T04:39:38.751Z,100820.06
2023-03-29T04:41:43.709Z,100815.78
2023-03-29T04:43:55.964Z,100825.97
2023-03-29T04:46:03.473Z,100817.31
2023-03-29T04:48:26.817Z,100820.66
2023-03-29T04:50:29.776Z,100811.34
2023-03-29T04:52:33.405Z,100815.66
2023-03-29T04:54:38.271Z,100810.66
2023-03-29T04:56:52.526Z,100805.31
2023-03-29T04:59:24.623Z,100812.03
2023-03-29T05:01:27.565Z,100809.50
2023-03-29T05:03:34.292Z,100806.94
2023-03-29T05:05:45.776Z,100808.63
2023-03-29T05:07:48.569Z,100819.84
2023-03-29T05:09:55.576Z,100820.66
2023-03-29T05:11:59.774Z,100815.53
2023-03-29T05:14:07.292Z,100813.97
2023-03-29T05:16:32.848Z,100813.31
2023-03-29T05:18:36.386Z,100821.59
2023-03-29T05:20:40.475Z,100817.53
2023-03-29T05:22:43.538Z,100809.97
2023-03-29T05:24:51.508Z,100815.03
2023-03-29T05:26:55.333Z,100818.25
2023-03-29T05:29:00.855Z,100823.56
2023-03-29T05:31:06.164Z,100819.13
2023-03-29T05:33:12.247Z,100820.75
2023-03-29T05:35:16.038Z,100815.53
2023-03-29T05:37:20.182Z,100826.28
2023-03-29T05:39:28.333Z,100828.84
2023-03-29T05:41:31.370Z,100825.41
2023-03-29T05:43:53.293Z,100826.38
2023-03-29T05:46:01.785Z,100824.72
2023-03-29T05:48:07.806Z,100815.28
2023-03-29T05:50:11.535Z,100815.38
2023-03-29T05:52:15.199Z,100822.38
2023-03-29T05:54:18.062Z,100821.38
2023-03-29T05:56:20.948Z,100818.50
2023-03-29T05:58:26.355Z,100821.25
2023-03-29T06:00:31.783Z,100824.47
2023-03-29T06:02:49.529Z,100824.59
2023-03-29T06:04:53.869Z,100823.81
2023-03-29T06:07:02.043Z,100818.84
2023-03-29T06:09:06.830Z,100821.69
2023-03-29T06:11:14.324Z,100822.66
2023-03-29T06:13:37.116Z,100832.91
2023-03-29T06:15:40.213Z,100836.31
2023-03-29T06:17:47.101Z,100827.75
2023-03-29T06:19:52.973Z,100829.75
2023-03-29T06:21:58.854Z,100836.84
2023-03-29T06:24:04.105Z,100825.78
2023-03-29T06:26:13.794Z,100838.78
2023-03-29T06:28:17.606Z,100838.19
2023-03-29T06:30:21.325Z,100842.63
2023-03-29T06:32:28.341Z,100841.00
2023-03-29T06:34:44.563Z,100839.34
2023-03-29T06:37:09.137Z,100828.28
2023-03-29T06:39:11.986Z,100837.09
2023-03-29T06:41:30.501Z,100837.16
2023-03-29T06:43:42.533Z,100838.94
2023-03-29T06:45:50.918Z,100836.53
2023-03-29T06:48:02.060Z,100838.38
2023-03-29T06:50:07.027Z,100841.88
2023-03-29T06:52:23.609Z,100846.22
2023-03-29T06:54:27.035Z,100848.53
2023-03-29T06:56:36.536Z,100849.28
2023-03-29T06:58:42.950Z,100857.34
2023-03-29T07:01:21.673Z,100854.59
2023-03-29T07:03:35.194Z,100853.66
2023-03-29T07:05:40.783Z,100851.31
2023-03-29T07:07:56.518Z,100851.78
2023-03-29T07:10:12.806Z,100849.25
2023-03-29T07:12:51.476Z,100844.06
2023-03-29T07:14:54.385Z,100852.06
2023-03-29T07:16:59.373Z,100848.69
2023-03-29T07:19:06.378Z,100844.59
2023-03-29T07:21:37.319Z,100838.81
2023-03-29T07:23:42.568Z,100840.72
2023-03-29T07:25:47.248Z,100837.50
2023-03-29T07:27:50.729Z,100839.47
2023-03-29T07:29:53.685Z,100849.91
2023-03-29T07:31:57.667Z,100849.25
2023-03-29T07:34:27.070Z,100851.00
2023-03-29T07:36:30.283Z,100857.16
2023-03-29T07:38:33.265Z,100853.94
2023-03-29T07:40:47.051Z,100857.44
2023-03-29T07:43:10.978Z,100855.66
2023-03-29T07:45:16.425Z,100850.41
2023-03-29T07:47:32.143Z,100844.13
2023-03-29T07:49:35.218Z,100853.81
2023-03-29T07:51:38.131Z,100850.63
2023-03-29T07:53:46.579Z,100843.00
2023-03-29T07:56:20.444Z,100849.25
2023-03-29T07:58:27.513Z,100853.75
2023-03-29T08:00:30.413Z,100851.31
2023-03-29T08:02:53.656Z,100857.44
2023-03-29T08:04:56.967Z,100853.19
2023-03-29T08:07:19.805Z,100857.66
2023-03-29T08:09:43.361Z,100858.41
2023-03-29T08:11:47.699Z,100861.78
2023-03-29T08:13:56.238Z,100856.69
2023-03-29T08:15:59.097Z,100862.13
2023-03-29T08:18:14.078Z,100852.72
2023-03-29T08:20:17.585Z,100845.19
2023-03-29T08:22:23.010Z,100845.31
2023-03-29T08:24:44.567Z,100853.25
2023-03-29T08:26:49.090Z,100847.22
2023-03-29T08:28:54.897Z,100845.53
2023-03-29T08:30:59.957Z,100843.84
2023-03-29T08:33:02.951Z,100840.31
2023-03-29T08:35:09.714Z,100836.03
2023-03-29T08:37:19.653Z,100836.22
2023-03-29T08:39:24.755Z,100834.59
2023-03-29T08:41:57.290Z,100838.19
2023-03-29T08:44:35.179Z,100836.69
2023-03-29T08:46:48.596Z,100829.81
2023-03-29T08:49:10.395Z,100835.13
2023-03-29T08:51:21.441Z,100829.25
2023-03-29T08:53:30.639Z,100839.56
2023-03-29T08:55:49.995Z,100839.47
2023-03-29T08:58:16.990Z,100841.31
2023-03-29T09:00:25.572Z,100845.66
2023-03-29T09:02:32.730Z,100849.06
2023-03-29T09:04:42.451Z,100848.91
2023-03-29T09:07:05.035Z,100844.59
2023-03-29T09:09:18.553Z,100847.19
2023-03-29T09:11:49.944Z,100847.34
2023-03-29T09:14:05.047Z,100849.88
2023-03-29T09:16:19.198Z,100852.56
2023-03-29T09:18:33.801Z,100850.09
2023-03-29T09:20:44.932Z,100837.16
2023-03-29T09:22:57.676Z,100835.75
2023-03-29T09:25:12.968Z,100835.06
2023-03-29T09:27:24.330Z,100835.19
2023-03-29T09:29:46.468Z,100839.53
2023-03-29T09:31:51.120Z,100838.09
2023-03-29T09:33:59.646Z,100827.09
2023-03-29T09:36:19.010Z,100837.66
2023-03-29T09:38:24.046Z,100823.97
2023-03-29T09:40:32.346Z,100825.94
2023-03-29T09:42:50.437Z,100830.47
2023-03-29T09:44:58.370Z,100834.09
2023-03-29T09:47:18.579Z,100841.09
2023-03-29T09:49:25.924Z,100835.94
2023-03-29T09:51:31.932Z,100832.53
2023-03-29T09:53:34.843Z,100829.97
2023-03-29T09:55:51.904Z,100816.16
2023-03-29T09:58:19.755Z,100821.63
2023-03-29T10:00:27.903Z,100814.94
2023-03-29T10:02:32.678Z,100820.19
2023-03-29T10:04:35.467Z,100814.25
2023-03-29T10:06:43.203Z,100809.97
2023-03-29T10:08:51.705Z,100807.38
2023-03-29T10:10:57.421Z,100802.25
2023-03-29T10:13:04.116Z,100807.34
2023-03-29T10:15:16.745Z,100805.66
2023-03-29T10:17:32.687Z,100803.13
2023-03-29T10:19:36.944Z,100795.50
2023-03-29T10:21:42.156Z,100796.50
2023-03-29T10:23:45.020Z,100780.09
2023-03-29T10:25:48.096Z,100769.75
2023-03-29T10:27:50.971Z,100770.88
2023-03-29T10:29:55.323Z,100767.50
2023-03-29T10:31:58.176Z,100767.56
2023-03-29T10:34:06.230Z,100764.16
2023-03-29T10:36:12.956Z,100758.91
2023-03-29T10:38:18.625Z,100751.94
2023-03-29T10:40:26.643Z,100758.97
2023-03-29T10:42:29.588Z,100747.66
2023-03-29T10:44:35.416Z,100760.81
2023-03-29T10:46:43.885Z,100754.72
2023-03-29T10:48:49.064Z,100752.03
2023-03-29T10:50:53.344Z,100755.50
2023-03-29T10:52:56.391Z,100749.44
2023-03-29T10:55:00.063Z,100744.25
2023-03-29T10:57:08.595Z,100733.00
2023-03-29T10:59:32.072Z,100737.41
2023-03-29T11:01:45.204Z,100736.53
2023-03-29T11:04:09.840Z,100735.66
2023-03-29T11:06:21.529Z,100724.25
2023-03-29T11:08:52.580Z,100716.38
2023-03-29T11:11:05.969Z,100715.47
2023-03-29T11:13:17.278Z,100715.47
2023-03-29T11:15:34.281Z,100718.94
2023-03-29T11:17:52.692Z,100728.47
2023-03-29T11:20:05.882Z,100725.84
2023-03-29T11:22:16.628Z,100717.13
2023-03-29T11:24:43.718Z,100708.31
2023-03-29T11:26:59.979Z,100717.88
2023-03-29T11:29:09.210Z,100722.25
2023-03-29T11:31:23.293Z,100724.00
2023-03-29T11:33:38.616Z,100724.09
2023-03-29T11:35:49.158Z,100724.88
2023-03-29T11:38:00.814Z,100723.84
2023-03-29T11:40:22.798Z,100721.13
2023-03-29T11:42:32.031Z,100721.13
2023-03-29T11:44:36.970Z,100713.97
2023-03-29T11:46:43.475Z,100720.94
2023-03-29T11:48:53.168Z,100715.75
2023-03-29T11:51:00.777Z,100710.69
2023-03-29T11:53:11.947Z,100708.19
2023-03-29T11:55:18.869Z,100697.75
2023-03-29T11:57:27.430Z,100698.72
2023-03-29T11:59:35.701Z,100697.81
2023-03-29T12:01:46.417Z,100697.75
2023-03-29T12:03:53.423Z,100692.41
2023-03-29T12:05:59.669Z,100695.81
2023-03-29T12:08:08.300Z,100686.22
2023-03-29T12:10:18.791Z,100685.41
2023-03-29T12:12:27.730Z,100680.06
2023-03-29T12:14:43.329Z,100679.16
2023-03-29T12:17:07.566Z,100680.25
2023-03-29T12:19:18.856Z,100670.59
2023-03-29T12:21:23.864Z,100669.59
2023-03-29T12:23:31.697Z,100673.09
2023-03-29T12:25:42.284Z,100667.06
2023-03-29T12:27:53.767Z,100667.91
2023-03-29T12:30:19.522Z,100666.13
2023-03-29T12:32:50.639Z,100667.91
2023-03-29T12:35:38.336Z,100660.09
2023-03-29T12:38:20.546Z,100654.09
2023-03-29T12:40:46.330Z,100661.91
2023-03-29T12:43:10.287Z,100665.38
2023-03-29T12:45:34.119Z,100667.13
2023-03-29T12:47:44.562Z,100653.75
2023-03-29T12:49:47.991Z,100651.88
2023-03-29T12:51:51.144Z,100652.63
2023-03-29T12:53:56.367Z,100650.78
2023-03-29T12:56:13.607Z,100648.16
2023-03-29T12:58:28.065Z,100646.41
2023-03-29T13:00:34.863Z,100642.06
2023-03-29T13:02:39.196Z,100634.31
2023-03-29T13:04:51.225Z,100623.78
2023-03-29T13:07:04.048Z,100621.13
2023-03-29T13:09:22.954Z,100620.19
2023-03-29T13:11:52.602Z,100620.88
2023-03-29T13:13:57.273Z,100622.31
2023-03-29T13:16:12.799Z,100615.91
2023-03-29T13:18:33.971Z,100602.59
2023-03-29T13:20:46.948Z,100603.44
2023-03-29T13:23:05.625Z,100607.00
2023-03-29T13:25:25.364Z,100622.81
2023-03-29T13:27:42.311Z,100616.66
2023-03-29T13:30:00.623Z,100622.78
2023-03-29T13:32:18.176Z,100621.03
2023-03-29T13:34:35.902Z,100621.88
2023-03-29T13:36:53.557Z,100624.69
2023-03-29T13:38:56.895Z,100613.63
2023-03-29T13:41:04.934Z,100607.88
2023-03-29T13:43:12.416Z,100612.47
2023-03-29T13:45:17.578Z,100611.72
2023-03-29T13:47:39.279Z,100614.44
2023-03-29T13:49:45.345Z,100605.66
2023-03-29T13:52:06.562Z,100606.56
2023-03-29T13:54:21.516Z,100603.06
2023-03-29T13:56:27.196Z,100593.44
2023-03-29T13:58:39.159Z,100589.09
2023-03-29T14:00:49.275Z,100596.09
2023-03-29T14:02:56.225Z,100595.28
2023-03-29T14:05:04.168Z,100604.94
2023-03-29T14:07:10.619Z,100600.63
2023-03-29T14:09:15.327Z,100593.50
2023-03-29T14:11:24.129Z,100589.88
2023-03-29T14:13:27.107Z,100588.88
2023-03-29T14:15:43.455Z,100567.81
2023-03-29T14:17:46.704Z,100577.41
2023-03-29T14:19:50.194Z,100567.69
2023-03-29T14:21:54.130Z,100564.28
2023-03-29T14:24:01.462Z,100563.47
2023-03-29T14:26:09.126Z,100563.53
2023-03-29T14:28:21.767Z,100566.19
2023-03-29T14:30:28.379Z,100562.69
2023-03-29T14:32:32.835Z,100577.72
2023-03-29T14:34:35.646Z,100573.38
2023-03-29T14:36:40.076Z,100579.44
2023-03-29T14:38:49.510Z,100580.34
2023-03-29T14:40:52.538Z,100574.16
2023-03-29T14:42:56.247Z,100569.78
2023-03-29T14:45:04.047Z,100565.34
2023-03-29T14:47:07.100Z,100564.53
2023-03-29T14:49:16.070Z,100562.03
2023-03-29T14:51:20.081Z,100546.28
2023-03-29T14:53:24.619Z,100554.16
2023-03-29T14:55:27.384Z,100549.91
2023-03-29T14:57:35.066Z,100542.00
2023-03-29T14:59:39.920Z,100546.38
2023-03-29T15:01:45.175Z,100546.47
2023-03-29T15:03:54.839Z,100538.47
2023-03-29T15:06:02.839Z,100526.16
2023-03-29T15:08:08.746Z,100525.19
2023-03-29T15:10:18.619Z,100524.44
2023-03-29T15:12:22.104Z,100517.38
2023-03-29T15:14:27.814Z,100521.72
2023-03-29T15:16:31.443Z,100526.19
2023-03-29T15:18:39.772Z,100522.78
2023-03-29T15:20:44.804Z,100522.81
2023-03-29T15:22:59.025Z,100515.75
2023-03-29T15:25:02.017Z,100518.31
2023-03-29T15:27:12.395Z,100520.97
2023-03-29T15:29:23.667Z,100527.06
2023-03-29T15:31:34.521Z,100522.91
2023-03-29T15:33:39.369Z,100522.03
2023-03-29T15:35:43.363Z,100527.31
2023-03-29T15:37:46.176Z,100529.91
2023-03-29T15:39:51.001Z,100526.44
2023-03-29T15:41:54.452Z,100531.69
2023-03-29T15:43:57.468Z,100530.88
2023-03-29T15:46:00.266Z,100523.88
2023-03-29T15:48:04.773Z,100524.75
2023-03-29T15:50:07.805Z,100523.06
2023-03-29T15:52:10.631Z,100522.19
2023-03-29T15:54:13.678Z,100517.75
2023-03-29T15:56:22.864Z,100516.81
2023-03-29T15:58:28.746Z,100514.22
2023-03-29T16:00:31.753Z,100525.63
2023-03-29T16:02:35.241Z,100518.56
2023-03-29T16:04:38.091Z,100520.38
2023-03-29T16:06:41.082Z,100525.56
2023-03-29T16:08:44.010Z,100516.88
2023-03-29T16:10:47.018Z,100515.94
2023-03-29T16:12:51.294Z,100513.31
2023-03-29T16:14:54.071Z,100517.81
2023-03-29T16:17:00.545Z,100516.09
2023-03-29T16:19:03.405Z,100517.81
2023-03-29T16:21:07.037Z,100510.81
2023-03-29T16:23:11.400Z,100506.38
2023-03-29T16:25:15.811Z,100513.41
2023-03-29T16:27:18.839Z,100509.00
2023-03-29T16:29:23.015Z,100507.31
2023-03-29T16:31:26.929Z,100509.88
2023-03-29T16:33:29.951Z,100494.13
2023-03-29T16:35:35.443Z,100484.47
2023-03-29T16:37:38.242Z,100481.97
2023-03-29T16:39:40.996Z,100481.94
2023-03-29T16:41:45.112Z,100484.66
2023-03-29T16:43:47.923Z,100484.69
2023-03-29T16:45:52.238Z,100478.59
2023-03-29T16:47:56.043Z,100484.72
2023-03-29T16:49:58.906Z,100482.13
2023-03-29T16:52:01.692Z,100466.44
2023-03-29T16:54:04.816Z,100461.22
2023-03-29T16:56:08.786Z,100462.09
2023-03-29T16:58:11.599Z,100464.72
2023-03-29T17:00:19.657Z,100455.16
2023-03-29T17:02:23.933Z,100463.03
2023-03-29T17:04:26.813Z,100456.94
2023-03-29T17:06:31.816Z,100460.44
2023-03-29T17:08:34.829Z,100451.69
2023-03-29T17:10:38.004Z,100455.25
2023-03-29T17:12:40.947Z,100455.25
2023-03-29T17:14:43.744Z,100469.25
2023-03-29T17:16:46.728Z,100455.31
2023-03-29T17:18:50.975Z,100461.41
2023-03-29T17:20:57.111Z,100467.56
2023-03-29T17:22:59.864Z,100460.59
2023-03-29T17:25:03.762Z,100462.34
2023-03-29T17:27:06.625Z,100454.50
2023-03-29T17:29:09.432Z,100449.28
2023-03-29T17:31:12.283Z,100446.66
2023-03-29T17:33:15.294Z,100451.91
2023-03-29T17:35:19.461Z,100456.31
2023-03-29T17:37:22.718Z,100452.81
2023-03-29T17:39:27.016Z,100445.81
2023-03-29T17:41:31.037Z,100442.38
2023-03-29T17:43:34.068Z,100444.13
2023-03-29T17:45:36.928Z,100445.00
2023-03-29T17:47:40.000Z,100441.50
2023-03-29T17:49:43.794Z,100438.91
2023-03-29T17:51:47.989Z,100436.31
2023-03-29T17:53:52.337Z,100428.47
2023-03-29T17:55:55.403Z,100428.50
2023-03-29T17:57:58.292Z,100433.72
2023-03-29T18:00:01.104Z,100432.88
2023-03-29T18:02:05.334Z,100434.59
2023-03-29T18:04:08.458Z,100438.13
2023-03-29T18:06:11.505Z,100442.47
2023-03-29T18:08:16.661Z,100433.75
2023-03-29T18:10:19.834Z,100431.16
2023-03-29T18:12:23.715Z,100436.41
2023-03-29T18:14:26.516Z,100437.28
2023-03-29T18:16:29.420Z,100436.38
2023-03-29T18:18:32.786Z,100428.53
2023-03-29T18:20:35.637Z,100434.66
2023-03-29T18:22:38.744Z,100435.50
2023-03-29T18:24:42.919Z,100436.41
2023-03-29T18:26:45.816Z,100432.06
2023-03-29T18:28:48.802Z,100429.44
2023-03-29T18:30:51.687Z,100437.31
2023-03-29T18:32:54.474Z,100432.09
2023-03-29T18:34:57.330Z,100436.47
2023-03-29T18:37:00.301Z,100439.09
2023-03-29T18:39:05.614Z,100438.16
2023-03-29T18:41:11.197Z,100433.81
2023-03-29T18:43:14.148Z,100423.38
2023-03-29T18:45:17.222Z,100438.16
2023-03-29T18:47:20.070Z,100440.78
2023-03-29T18:49:22.947Z,100439.06
2023-03-29T18:51:28.005Z,100433.81
2023-03-29T18:53:30.939Z,100431.22
2023-03-29T18:55:33.746Z,100426.00
2023-03-29T18:57:37.980Z,100428.59
2023-03-29T18:59:40.757Z,100426.84
2023-03-29T19:01:43.594Z,100421.63
2023-03-29T19:03:46.852Z,100422.53
2023-03-29T19:05:55.108Z,100413.81
2023-03-29T19:07:58.242Z,100415.56
2023-03-29T19:10:02.107Z,100416.41
2023-03-29T19:12:05.595Z,100413.81
2023-03-29T19:14:09.741Z,100412.09
2023-03-29T19:16:12.644Z,100414.69
2023-03-29T19:18:15.985Z,100406.00
2023-03-29T19:20:18.997Z,100406.88
2023-03-29T19:22:21.894Z,100404.25
2023-03-29T19:24:24.716Z,100399.91
2023-03-29T19:26:28.265Z,100394.69
2023-03-29T19:28:31.393Z,100400.78
2023-03-29T19:30:36.500Z,100398.16
2023-03-29T19:32:39.460Z,100392.91
2023-03-29T19:34:42.387Z,100384.22
2023-03-29T19:36:45.441Z,100378.97
2023-03-29T19:38:48.236Z,100372.03
2023-03-29T19:40:52.431Z,100368.53
2023-03-29T19:42:55.274Z,100364.19
2023-03-29T19:44:58.140Z,100356.34
2023-03-29T19:47:02.408Z,100358.94
2023-03-29T19:49:05.797Z,100345.84
2023-03-29T19:51:08.920Z,100355.44
2023-03-29T19:53:12.451Z,100354.59
2023-03-29T19:55:15.355Z,100351.97
2023-03-29T19:57:19.213Z,100346.72
2023-03-29T19:59:22.663Z,100343.25
2023-03-29T20:01:27.174Z,100337.13
2023-03-29T20:03:33.971Z,100336.28
2023-03-29T20:05:39.719Z,100339.78
2023-03-29T20:07:42.551Z,100328.47
2023-03-29T20:09:45.905Z,100328.47
2023-03-29T20:11:48.695Z,100326.69
2023-03-29T20:13:51.532Z,100324.06
2023-03-29T20:15:54.906Z,100321.47
2023-03-29T20:17:59.701Z,100321.44
2023-03-29T20:20:04.524Z,100322.31
2023-03-29T20:22:08.651Z,100303.13
2023-03-29T20:24:11.934Z,100308.38
2023-03-29T20:26:15.365Z,100300.53
2023-03-29T20:28:18.335Z,100300.53
2023-03-29T20:30:21.497Z,100300.50
2023-03-29T20:32:24.432Z,100297.03
2023-03-29T20:34:27.292Z,100290.06
2023-03-29T20:36:30.634Z,100288.34
2023-03-29T20:38:35.218Z,100284.84
2023-03-29T20:40:38.672Z,100290.09
2023-03-29T20:42:41.502Z,100283.09
2023-03-29T20:44:50.371Z,100283.13
2023-03-29T20:47:03.684Z,100270.03
2023-03-29T20:49:08.800Z,100270.94
2023-03-29T20:51:11.993Z,100269.19
2023-03-29T20:53:16.199Z,100267.47
2023-03-29T20:55:22.216Z,100264.84
2023-03-29T20:57:25.034Z,100265.72
2023-03-29T20:59:28.508Z,100262.22
2023-03-29T21:01:31.317Z,100261.38
2023-03-29T21:03:34.243Z,100258.78
2023-03-29T21:05:37.141Z,100253.56
2023-03-29T21:07:40.191Z,100253.56
2023-03-29T21:09:43.518Z,100253.53
2023-03-29T21:11:47.726Z,100257.03
2023-03-29T21:13:52.819Z,100257.03
2023-03-29T21:15:55.829Z,100258.78
2023-03-29T21:17:58.799Z,100248.34
2023-03-29T21:20:07.404Z,100248.31
2023-03-29T21:22:13.583Z,100244.84
2023-03-29T21:24:16.434Z,100237.88
2023-03-29T21:26:19.335Z,100235.25
2023-03-29T21:28:23.515Z,100229.16
2023-03-29T21:30:26.307Z,100223.94
2023-03-29T21:32:29.067Z,100221.34
2023-03-29T21:34:31.852Z,100212.66
2023-03-29T21:36:34.693Z,100218.75
2023-03-29T21:38:37.552Z,100214.38
2023-03-29T21:40:40.367Z,100217.00
2023-03-29T21:42:43.196Z,100228.31
2023-03-29T21:44:47.364Z,100230.03
2023-03-29T21:46:50.370Z,100214.38
2023-03-29T21:48:53.278Z,100218.75
2023-03-29T21:50:56.130Z,100210.91
2023-03-29T21:52:58.901Z,100222.22
2023-03-29T21:55:01.753Z,100217.88
2023-03-29T21:57:04.798Z,100222.22
2023-03-29T21:59:07.720Z,100215.28
2023-03-29T22:01:11.900Z,100211.78
2023-03-29T22:03:16.423Z,100226.56
2023-03-29T22:05:19.360Z,100217.84
2023-03-29T22:07:26.444Z,100220.47
2023-03-29T22:09:29.282Z,100219.59
2023-03-29T22:11:32.290Z,100216.13
2023-03-29T22:13:35.231Z,100208.31
2023-03-29T22:15:38.813Z,100210.03
2023-03-29T22:17:43.208Z,100210.03
2023-03-29T22:19:47.527Z,100212.63
2023-03-29T22:21:51.256Z,100218.72
2023-03-29T22:23:56.099Z,100217.84
2023-03-29T22:25:58.989Z,100216.94
2023-03-29T22:28:01.805Z,100216.97
2023-03-29T22:30:06.539Z,100214.28
2023-03-29T22:32:09.161Z,100218.66
2023-03-29T22:34:13.494Z,100220.41
2023-03-29T22:36:18.166Z,100214.28
2023-03-29T22:38:21.311Z,100213.44
2023-03-29T22:40:26.603Z,100212.59
2023-03-29T22:42:29.396Z,100209.94
2023-03-29T22:44:36.888Z,100209.06
2023-03-29T22:46:39.680Z,100214.28
2023-03-29T22:48:42.501Z,100216.03
2023-03-29T22:50:48.232Z,100221.19
2023-03-29T22:52:51.110Z,100220.28
2023-03-29T22:54:53.900Z,100214.19
2023-03-29T22:56:56.997Z,100224.69
2023-03-29T22:58:59.836Z,100243.00
2023-03-29T23:01:03.012Z,100240.41
2023-03-29T23:03:06.559Z,100225.53
2023-03-29T23:05:09.596Z,100227.28
2023-03-29T23:07:13.765Z,100211.56
2023-03-29T23:09:16.731Z,100218.53
2023-03-29T23:11:22.100Z,100222.03
2023-03-29T23:13:25.978Z,100226.41
2023-03-29T23:15:29.707Z,100214.25
2023-03-29T23:17:33.108Z,100209.00
2023-03-29T23:19:35.918Z,100209.91
2023-03-29T23:21:38.947Z,100214.25
2023-03-29T23:23:43.421Z,100202.94
2023-03-29T23:25:47.429Z,100208.19
2023-03-29T23:27:50.151Z,100190.75
2023-03-29T23:29:52.955Z,100181.16
2023-03-29T23:31:56.701Z,100175.03
2023-03-29T23:33:59.851Z,100175.94
2023-03-29T23:36:04.210Z,100159.41
2023-03-29T23:38:08.405Z,100154.13
2023-03-29T23:40:15.495Z,100145.47
2023-03-29T23:42:18.345Z,100117.59
2023-03-29T23:44:21.114Z,100122.00
2023-03-29T23:46:24.600Z,100121.94
2023-03-29T23:48:28.075Z,100133.31
2023-03-29T23:50:30.849Z,100148.16
2023-03-29T23:52:33.905Z,100147.28
2023-03-29T23:54:36.645Z,100140.34
2023-03-29T23:56:40.889Z,100129.88
2023-03-29T23:58:44.418Z,100132.50
